sensor_id;sensor_type;location;lat;lon;timestamp;temperature;humidity
40932;DHT22;36257;46.052;12.540;2024-03-08T00:00:23;8.50;99.90
40932;DHT22;36257;46.052;12.540;2024-03-08T00:02:49;8.50;99.90
40932;DHT22;36257;46.052;12.540;2024-03-08T00:05:16;8.50;99.90
40932;DHT22;36257;46.052;12.540;2024-03-08T00:07:43;8.60;99.90
40932;DHT22;36257;46.052;12.540;2024-03-08T00:10:11;8.50;99.90
40932;DHT22;36257;46.052;12.540;2024-03-08T00:12:38;8.40;99.90
40932;DHT22;36257;46.052;12.540;2024-03-08T00:15:08;8.40;99.90
40932;DHT22;36257;46.052;12.540;2024-03-08T00:17:34;8.30;99.90
40932;DHT22;36257;46.052;12.540;2024-03-08T00:19:59;8.20;99.90
40932;DHT22;36257;46.052;12.540;2024-03-08T00:22:25;8.20;99.90
40932;DHT22;36257;46.052;12.540;2024-03-08T00:24:51;8.10;99.90
40932;DHT22;36257;46.052;12.540;2024-03-08T00:27:16;8.10;99.90
40932;DHT22;36257;46.052;12.540;2024-03-08T00:29:42;8.10;99.90
40932;DHT22;36257;46.052;12.540;2024-03-08T00:32:08;8.10;99.90
40932;DHT22;36257;46.052;12.540;2024-03-08T00:34:36;8.10;99.90
40932;DHT22;36257;46.052;12.540;2024-03-08T00:37:03;8.10;99.90
40932;DHT22;36257;46.052;12.540;2024-03-08T00:39:29;8.20;99.90
40932;DHT22;36257;46.052;12.540;2024-03-08T00:41:55;8.20;99.90
40932;DHT22;36257;46.052;12.540;2024-03-08T00:44:20;8.20;99.90
40932;DHT22;36257;46.052;12.540;2024-03-08T00:46:46;8.10;99.90
40932;DHT22;36257;46.052;12.540;2024-03-08T00:49:12;8.10;99.90
40932;DHT22;36257;46.052;12.540;2024-03-08T00:51:38;8.10;99.90
40932;DHT22;36257;46.052;12.540;2024-03-08T00:54:04;8.20;99.90
40932;DHT22;36257;46.052;12.540;2024-03-08T00:56:29;8.20;99.90
40932;DHT22;36257;46.052;12.540;2024-03-08T00:58:55;8.10;99.90
40932;DHT22;36257;46.052;12.540;2024-03-08T01:01:21;8.00;99.90
40932;DHT22;36257;46.052;12.540;2024-03-08T01:03:46;8.00;99.90
40932;DHT22;36257;46.052;12.540;2024-03-08T01:06:12;8.10;99.90
40932;DHT22;36257;46.052;12.540;2024-03-08T01:08:38;8.20;99.90
40932;DHT22;36257;46.052;12.540;2024-03-08T01:11:06;8.10;99.90
40932;DHT22;36257;46.052;12.540;2024-03-08T01:13:32;8.00;99.90
40932;DHT22;36257;46.052;12.540;2024-03-08T01:15:58;7.90;99.90
40932;DHT22;36257;46.052;12.540;2024-03-08T01:18:23;7.90;99.90
40932;DHT22;36257;46.052;12.540;2024-03-08T01:20:49;7.90;99.90
40932;DHT22;36257;46.052;12.540;2024-03-08T01:23:15;8.00;99.90
40932;DHT22;36257;46.052;12.540;2024-03-08T01:25:41;8.10;99.90
40932;DHT22;36257;46.052;12.540;2024-03-08T01:28:07;8.10;99.90
40932;DHT22;36257;46.052;12.540;2024-03-08T01:30:32;8.10;99.90
40932;DHT22;36257;46.052;12.540;2024-03-08T01:33:00;8.10;99.90
40932;DHT22;36257;46.052;12.540;2024-03-08T01:35:25;8.20;99.90
40932;DHT22;36257;46.052;12.540;2024-03-08T01:37:52;8.10;99.90
40932;DHT22;36257;46.052;12.540;2024-03-08T01:40:18;8.10;99.90
40932;DHT22;36257;46.052;12.540;2024-03-08T01:42:44;8.20;99.90
40932;DHT22;36257;46.052;12.540;2024-03-08T01:45:10;8.20;99.90
40932;DHT22;36257;46.052;12.540;2024-03-08T01:47:37;8.20;99.90
40932;DHT22;36257;46.052;12.540;2024-03-08T01:50:03;8.20;99.90
40932;DHT22;36257;46.052;12.540;2024-03-08T01:52:32;8.20;99.90
40932;DHT22;36257;46.052;12.540;2024-03-08T01:55:02;8.10;99.90
40932;DHT22;36257;46.052;12.540;2024-03-08T01:57:32;8.10;99.90
40932;DHT22;36257;46.052;12.540;2024-03-08T02:00:00;8.00;99.90
40932;DHT22;36257;46.052;12.540;2024-03-08T02:02:31;8.00;99.90
40932;DHT22;36257;46.052;12.540;2024-03-08T02:04:57;8.00;99.90
40932;DHT22;36257;46.052;12.540;2024-03-08T02:07:23;8.00;99.90
40932;DHT22;36257;46.052;12.540;2024-03-08T02:09:49;8.10;99.90
40932;DHT22;36257;46.052;12.540;2024-03-08T02:12:14;8.10;99.90
40932;DHT22;36257;46.052;12.540;2024-03-08T02:14:40;8.10;99.90
40932;DHT22;36257;46.052;12.540;2024-03-08T02:17:06;8.00;99.90
40932;DHT22;36257;46.052;12.540;2024-03-08T02:19:32;8.00;99.90
40932;DHT22;36257;46.052;12.540;2024-03-08T02:21:58;8.00;99.90
40932;DHT22;36257;46.052;12.540;2024-03-08T02:24:24;7.90;99.90
40932;DHT22;36257;46.052;12.540;2024-03-08T02:26:51;7.90;99.90
40932;DHT22;36257;46.052;12.540;2024-03-08T02:29:16;7.70;99.90
40932;DHT22;36257;46.052;12.540;2024-03-08T02:31:42;7.70;99.90
40932;DHT22;36257;46.052;12.540;2024-03-08T02:34:08;7.60;99.90
40932;DHT22;36257;46.052;12.540;2024-03-08T02:36:35;7.60;99.90
40932;DHT22;36257;46.052;12.540;2024-03-08T02:39:03;7.70;99.90
40932;DHT22;36257;46.052;12.540;2024-03-08T02:41:30;7.60;99.90
40932;DHT22;36257;46.052;12.540;2024-03-08T02:43:56;7.60;99.90
40932;DHT22;36257;46.052;12.540;2024-03-08T02:46:22;7.60;99.90
40932;DHT22;36257;46.052;12.540;2024-03-08T02:48:47;7.60;99.90
40932;DHT22;36257;46.052;12.540;2024-03-08T02:51:13;7.60;99.90
40932;DHT22;36257;46.052;12.540;2024-03-08T02:53:39;7.60;99.90
40932;DHT22;36257;46.052;12.540;2024-03-08T02:56:05;7.60;99.90
40932;DHT22;36257;46.052;12.540;2024-03-08T02:58:38;7.50;99.90
40932;DHT22;36257;46.052;12.540;2024-03-08T03:01:03;7.40;99.90
40932;DHT22;36257;46.052;12.540;2024-03-08T03:03:29;7.40;99.90
40932;DHT22;36257;46.052;12.540;2024-03-08T03:05:55;7.40;99.90
40932;DHT22;36257;46.052;12.540;2024-03-08T03:08:21;7.40;99.90
40932;DHT22;36257;46.052;12.540;2024-03-08T03:10:47;7.20;99.90
40932;DHT22;36257;46.052;12.540;2024-03-08T03:13:12;7.20;99.90
40932;DHT22;36257;46.052;12.540;2024-03-08T03:15:39;7.10;99.90
40932;DHT22;36257;46.052;12.540;2024-03-08T03:18:07;7.20;99.90
40932;DHT22;36257;46.052;12.540;2024-03-08T03:20:33;7.20;99.90
40932;DHT22;36257;46.052;12.540;2024-03-08T03:23:02;7.20;99.90
40932;DHT22;36257;46.052;12.540;2024-03-08T03:25:28;7.30;99.90
40932;DHT22;36257;46.052;12.540;2024-03-08T03:27:59;7.30;99.90
40932;DHT22;36257;46.052;12.540;2024-03-08T03:30:25;7.20;99.90
40932;DHT22;36257;46.052;12.540;2024-03-08T03:33:11;7.20;99.90
40932;DHT22;36257;46.052;12.540;2024-03-08T03:35:38;7.20;99.90
40932;DHT22;36257;46.052;12.540;2024-03-08T03:38:04;7.20;99.90
40932;DHT22;36257;46.052;12.540;2024-03-08T03:40:37;7.10;99.90
40932;DHT22;36257;46.052;12.540;2024-03-08T03:43:04;7.10;99.90
40932;DHT22;36257;46.052;12.540;2024-03-08T03:45:30;7.20;99.90
40932;DHT22;36257;46.052;12.540;2024-03-08T03:48:04;7.20;99.90
40932;DHT22;36257;46.052;12.540;2024-03-08T03:50:29;7.20;99.90
40932;DHT22;36257;46.052;12.540;2024-03-08T03:52:55;7.10;99.90
40932;DHT22;36257;46.052;12.540;2024-03-08T03:55:21;7.10;99.90
40932;DHT22;36257;46.052;12.540;2024-03-08T03:57:47;7.10;99.90
40932;DHT22;36257;46.052;12.540;2024-03-08T04:00:13;7.10;99.90
40932;DHT22;36257;46.052;12.540;2024-03-08T04:02:39;7.00;99.90
40932;DHT22;36257;46.052;12.540;2024-03-08T04:05:09;6.90;99.90
40932;DHT22;36257;46.052;12.540;2024-03-08T04:07:35;7.00;99.90
40932;DHT22;36257;46.052;12.540;2024-03-08T04:10:02;6.90;99.90
40932;DHT22;36257;46.052;12.540;2024-03-08T04:12:28;7.00;99.90
40932;DHT22;36257;46.052;12.540;2024-03-08T04:14:55;7.10;99.90
40932;DHT22;36257;46.052;12.540;2024-03-08T04:17:21;7.00;99.90
40932;DHT22;36257;46.052;12.540;2024-03-08T04:19:47;7.10;99.90
40932;DHT22;36257;46.052;12.540;2024-03-08T04:22:14;7.10;99.90
40932;DHT22;36257;46.052;12.540;2024-03-08T04:24:39;7.00;99.90
40932;DHT22;36257;46.052;12.540;2024-03-08T04:27:06;7.00;99.90
40932;DHT22;36257;46.052;12.540;2024-03-08T04:29:32;7.00;99.90
40932;DHT22;36257;46.052;12.540;2024-03-08T04:31:59;7.00;99.90
40932;DHT22;36257;46.052;12.540;2024-03-08T04:34:25;6.90;99.90
40932;DHT22;36257;46.052;12.540;2024-03-08T04:36:50;6.90;99.90
40932;DHT22;36257;46.052;12.540;2024-03-08T04:39:16;7.00;99.90
40932;DHT22;36257;46.052;12.540;2024-03-08T04:41:44;7.00;99.90
40932;DHT22;36257;46.052;12.540;2024-03-08T04:44:10;6.90;99.90
40932;DHT22;36257;46.052;12.540;2024-03-08T04:46:38;7.00;99.90
40932;DHT22;36257;46.052;12.540;2024-03-08T04:49:03;7.00;99.90
40932;DHT22;36257;46.052;12.540;2024-03-08T04:51:29;6.90;99.90
40932;DHT22;36257;46.052;12.540;2024-03-08T04:53:55;6.90;99.90
40932;DHT22;36257;46.052;12.540;2024-03-08T04:56:22;6.90;99.90
40932;DHT22;36257;46.052;12.540;2024-03-08T04:58:48;7.00;99.90
40932;DHT22;36257;46.052;12.540;2024-03-08T05:01:14;7.00;99.90
40932;DHT22;36257;46.052;12.540;2024-03-08T05:03:39;7.00;99.90
40932;DHT22;36257;46.052;12.540;2024-03-08T05:06:05;7.00;99.90
40932;DHT22;36257;46.052;12.540;2024-03-08T05:08:31;7.00;99.90
40932;DHT22;36257;46.052;12.540;2024-03-08T05:10:57;7.00;99.90
40932;DHT22;36257;46.052;12.540;2024-03-08T05:13:22;7.00;99.90
40932;DHT22;36257;46.052;12.540;2024-03-08T05:15:49;7.00;99.90
40932;DHT22;36257;46.052;12.540;2024-03-08T05:18:16;7.00;99.90
40932;DHT22;36257;46.052;12.540;2024-03-08T05:20:41;7.10;99.90
40932;DHT22;36257;46.052;12.540;2024-03-08T05:23:07;7.10;99.90
40932;DHT22;36257;46.052;12.540;2024-03-08T05:25:33;7.10;99.90
40932;DHT22;36257;46.052;12.540;2024-03-08T05:27:59;7.00;99.90
40932;DHT22;36257;46.052;12.540;2024-03-08T05:30:25;7.00;99.90
40932;DHT22;36257;46.052;12.540;2024-03-08T05:32:50;7.00;99.90
40932;DHT22;36257;46.052;12.540;2024-03-08T05:35:16;6.90;99.90
40932;DHT22;36257;46.052;12.540;2024-03-08T05:37:42;7.00;99.90
40932;DHT22;36257;46.052;12.540;2024-03-08T05:40:08;6.90;99.90
40932;DHT22;36257;46.052;12.540;2024-03-08T05:42:38;7.00;99.90
40932;DHT22;36257;46.052;12.540;2024-03-08T05:45:04;6.90;99.90
40932;DHT22;36257;46.052;12.540;2024-03-08T05:47:32;6.90;99.90
40932;DHT22;36257;46.052;12.540;2024-03-08T05:49:59;7.00;99.90
40932;DHT22;36257;46.052;12.540;2024-03-08T05:52:25;7.00;99.90
40932;DHT22;36257;46.052;12.540;2024-03-08T05:54:51;7.00;99.90
40932;DHT22;36257;46.052;12.540;2024-03-08T05:57:17;7.00;99.90
40932;DHT22;36257;46.052;12.540;2024-03-08T05:59:43;7.00;99.90
40932;DHT22;36257;46.052;12.540;2024-03-08T06:02:09;7.00;99.90
40932;DHT22;36257;46.052;12.540;2024-03-08T06:04:34;7.00;99.90
40932;DHT22;36257;46.052;12.540;2024-03-08T06:07:00;7.00;99.90
40932;DHT22;36257;46.052;12.540;2024-03-08T06:09:26;7.10;99.90
40932;DHT22;36257;46.052;12.540;2024-03-08T06:11:52;7.10;99.90
40932;DHT22;36257;46.052;12.540;2024-03-08T06:14:19;7.10;99.90
40932;DHT22;36257;46.052;12.540;2024-03-08T06:16:47;7.10;99.90
40932;DHT22;36257;46.052;12.540;2024-03-08T06:19:15;7.10;99.90
40932;DHT22;36257;46.052;12.540;2024-03-08T06:21:41;7.10;99.90
40932;DHT22;36257;46.052;12.540;2024-03-08T06:24:07;7.20;99.90
40932;DHT22;36257;46.052;12.540;2024-03-08T06:26:32;7.20;99.90
40932;DHT22;36257;46.052;12.540;2024-03-08T06:28:58;7.10;99.90
40932;DHT22;36257;46.052;12.540;2024-03-08T06:31:24;7.10;99.90
40932;DHT22;36257;46.052;12.540;2024-03-08T06:33:50;7.10;99.90
40932;DHT22;36257;46.052;12.540;2024-03-08T06:36:18;7.10;99.90
40932;DHT22;36257;46.052;12.540;2024-03-08T06:38:48;7.10;99.90
40932;DHT22;36257;46.052;12.540;2024-03-08T06:41:14;7.10;99.90
40932;DHT22;36257;46.052;12.540;2024-03-08T06:43:46;7.10;99.90
40932;DHT22;36257;46.052;12.540;2024-03-08T06:46:15;7.10;99.90
40932;DHT22;36257;46.052;12.540;2024-03-08T06:48:41;7.00;99.90
40932;DHT22;36257;46.052;12.540;2024-03-08T06:51:07;7.00;99.90
40932;DHT22;36257;46.052;12.540;2024-03-08T06:53:32;7.00;99.90
40932;DHT22;36257;46.052;12.540;2024-03-08T06:56:00;7.00;99.90
40932;DHT22;36257;46.052;12.540;2024-03-08T06:58:27;7.00;99.90
40932;DHT22;36257;46.052;12.540;2024-03-08T07:00:53;7.00;99.90
40932;DHT22;36257;46.052;12.540;2024-03-08T07:03:19;7.00;99.90
40932;DHT22;36257;46.052;12.540;2024-03-08T07:05:47;7.00;99.90
40932;DHT22;36257;46.052;12.540;2024-03-08T07:08:13;7.00;99.90
40932;DHT22;36257;46.052;12.540;2024-03-08T07:10:39;6.90;99.90
40932;DHT22;36257;46.052;12.540;2024-03-08T07:13:07;6.90;99.90
40932;DHT22;36257;46.052;12.540;2024-03-08T07:15:33;6.80;99.90
40932;DHT22;36257;46.052;12.540;2024-03-08T07:17:59;6.90;99.90
40932;DHT22;36257;46.052;12.540;2024-03-08T07:20:25;6.90;99.90
40932;DHT22;36257;46.052;12.540;2024-03-08T07:22:51;6.90;99.90
40932;DHT22;36257;46.052;12.540;2024-03-08T07:25:17;6.90;99.90
40932;DHT22;36257;46.052;12.540;2024-03-08T07:27:55;6.90;99.90
40932;DHT22;36257;46.052;12.540;2024-03-08T07:30:25;6.90;99.90
40932;DHT22;36257;46.052;12.540;2024-03-08T07:33:10;6.90;99.90
40932;DHT22;36257;46.052;12.540;2024-03-08T07:35:39;6.90;99.90
40932;DHT22;36257;46.052;12.540;2024-03-08T07:38:08;7.00;99.90
40932;DHT22;36257;46.052;12.540;2024-03-08T07:40:38;7.00;99.90
40932;DHT22;36257;46.052;12.540;2024-03-08T07:43:07;7.00;99.90
40932;DHT22;36257;46.052;12.540;2024-03-08T07:45:32;7.00;99.90
40932;DHT22;36257;46.052;12.540;2024-03-08T07:47:58;7.10;99.90
40932;DHT22;36257;46.052;12.540;2024-03-08T07:50:24;7.10;99.90
40932;DHT22;36257;46.052;12.540;2024-03-08T07:52:49;7.10;99.90
40932;DHT22;36257;46.052;12.540;2024-03-08T07:55:15;7.10;99.90
40932;DHT22;36257;46.052;12.540;2024-03-08T07:57:41;7.10;99.90
40932;DHT22;36257;46.052;12.540;2024-03-08T08:00:08;7.10;99.90
40932;DHT22;36257;46.052;12.540;2024-03-08T08:02:35;7.10;99.90
40932;DHT22;36257;46.052;12.540;2024-03-08T08:05:01;7.00;99.90
40932;DHT22;36257;46.052;12.540;2024-03-08T08:07:27;7.00;99.90
40932;DHT22;36257;46.052;12.540;2024-03-08T08:09:53;7.10;99.90
40932;DHT22;36257;46.052;12.540;2024-03-08T08:12:19;7.20;99.90
40932;DHT22;36257;46.052;12.540;2024-03-08T08:14:45;7.20;99.90
40932;DHT22;36257;46.052;12.540;2024-03-08T08:17:12;7.20;99.90
40932;DHT22;36257;46.052;12.540;2024-03-08T08:19:37;7.20;99.90
40932;DHT22;36257;46.052;12.540;2024-03-08T08:22:04;7.20;99.90
40932;DHT22;36257;46.052;12.540;2024-03-08T08:24:30;7.30;99.90
40932;DHT22;36257;46.052;12.540;2024-03-08T08:26:56;7.30;99.90
40932;DHT22;36257;46.052;12.540;2024-03-08T08:29:22;7.40;99.90
40932;DHT22;36257;46.052;12.540;2024-03-08T08:31:48;7.40;99.90
40932;DHT22;36257;46.052;12.540;2024-03-08T08:34:16;7.40;99.90
40932;DHT22;36257;46.052;12.540;2024-03-08T08:36:42;7.40;99.90
40932;DHT22;36257;46.052;12.540;2024-03-08T08:39:07;7.40;99.90
40932;DHT22;36257;46.052;12.540;2024-03-08T08:41:39;7.40;99.90
40932;DHT22;36257;46.052;12.540;2024-03-08T08:44:07;7.50;99.90
40932;DHT22;36257;46.052;12.540;2024-03-08T08:46:39;7.60;99.90
40932;DHT22;36257;46.052;12.540;2024-03-08T08:49:05;7.60;99.90
40932;DHT22;36257;46.052;12.540;2024-03-08T08:51:32;7.50;99.90
40932;DHT22;36257;46.052;12.540;2024-03-08T08:53:59;7.50;99.90
40932;DHT22;36257;46.052;12.540;2024-03-08T08:56:24;7.60;99.90
40932;DHT22;36257;46.052;12.540;2024-03-08T08:58:51;7.60;99.90
40932;DHT22;36257;46.052;12.540;2024-03-08T09:01:19;7.60;99.90
40932;DHT22;36257;46.052;12.540;2024-03-08T09:03:44;7.60;99.90
40932;DHT22;36257;46.052;12.540;2024-03-08T09:06:12;7.60;99.90
40932;DHT22;36257;46.052;12.540;2024-03-08T09:08:39;7.60;99.90
40932;DHT22;36257;46.052;12.540;2024-03-08T09:11:05;7.70;99.90
40932;DHT22;36257;46.052;12.540;2024-03-08T09:13:31;7.70;99.90
40932;DHT22;36257;46.052;12.540;2024-03-08T09:15:57;7.80;99.90
40932;DHT22;36257;46.052;12.540;2024-03-08T09:18:22;7.70;99.90
40932;DHT22;36257;46.052;12.540;2024-03-08T09:20:49;7.70;99.90
40932;DHT22;36257;46.052;12.540;2024-03-08T09:23:19;7.70;99.90
40932;DHT22;36257;46.052;12.540;2024-03-08T09:25:45;7.60;99.90
40932;DHT22;36257;46.052;12.540;2024-03-08T09:28:11;7.70;99.90
40932;DHT22;36257;46.052;12.540;2024-03-08T09:30:38;7.60;99.90
40932;DHT22;36257;46.052;12.540;2024-03-08T09:33:04;7.50;99.90
40932;DHT22;36257;46.052;12.540;2024-03-08T09:35:30;7.50;99.90
40932;DHT22;36257;46.052;12.540;2024-03-08T09:37:55;7.50;99.90
40932;DHT22;36257;46.052;12.540;2024-03-08T09:40:21;7.50;99.90
40932;DHT22;36257;46.052;12.540;2024-03-08T09:42:49;7.50;99.90
40932;DHT22;36257;46.052;12.540;2024-03-08T09:45:17;7.50;99.90
40932;DHT22;36257;46.052;12.540;2024-03-08T09:47:44;7.50;99.90
40932;DHT22;36257;46.052;12.540;2024-03-08T09:50:10;7.40;99.90
40932;DHT22;36257;46.052;12.540;2024-03-08T09:52:38;7.50;99.90
40932;DHT22;36257;46.052;12.540;2024-03-08T09:55:08;7.30;99.90
40932;DHT22;36257;46.052;12.540;2024-03-08T09:57:37;7.30;99.90
40932;DHT22;36257;46.052;12.540;2024-03-08T10:00:04;7.30;99.90
40932;DHT22;36257;46.052;12.540;2024-03-08T10:02:45;7.30;99.90
40932;DHT22;36257;46.052;12.540;2024-03-08T10:05:12;7.30;99.90
40932;DHT22;36257;46.052;12.540;2024-03-08T10:07:37;7.30;99.90
40932;DHT22;36257;46.052;12.540;2024-03-08T10:10:03;7.30;99.90
40932;DHT22;36257;46.052;12.540;2024-03-08T10:12:29;7.40;99.90
40932;DHT22;36257;46.052;12.540;2024-03-08T10:14:58;7.40;99.90
40932;DHT22;36257;46.052;12.540;2024-03-08T10:17:24;7.40;99.90
40932;DHT22;36257;46.052;12.540;2024-03-08T10:19:51;7.40;99.90
40932;DHT22;36257;46.052;12.540;2024-03-08T10:22:19;7.40;99.90
40932;DHT22;36257;46.052;12.540;2024-03-08T10:24:48;7.40;99.90
40932;DHT22;36257;46.052;12.540;2024-03-08T10:27:16;7.30;99.90
40932;DHT22;36257;46.052;12.540;2024-03-08T10:29:42;7.30;99.90
40932;DHT22;36257;46.052;12.540;2024-03-08T10:32:10;7.30;99.90
40932;DHT22;36257;46.052;12.540;2024-03-08T10:34:35;7.30;99.90
40932;DHT22;36257;46.052;12.540;2024-03-08T10:37:04;7.30;99.90
40932;DHT22;36257;46.052;12.540;2024-03-08T10:39:35;7.10;99.90
40932;DHT22;36257;46.052;12.540;2024-03-08T10:42:03;7.10;99.90
40932;DHT22;36257;46.052;12.540;2024-03-08T10:49:41;7.20;99.90
40932;DHT22;36257;46.052;12.540;2024-03-08T10:52:13;7.30;99.90
40932;DHT22;36257;46.052;12.540;2024-03-08T10:54:40;7.30;99.90
40932;DHT22;36257;46.052;12.540;2024-03-08T10:57:06;7.40;99.90
40932;DHT22;36257;46.052;12.540;2024-03-08T10:59:34;7.40;99.90
40932;DHT22;36257;46.052;12.540;2024-03-08T11:02:01;7.30;99.90
40932;DHT22;36257;46.052;12.540;2024-03-08T11:04:26;7.40;99.90
40932;DHT22;36257;46.052;12.540;2024-03-08T11:07:00;7.40;99.90
40932;DHT22;36257;46.052;12.540;2024-03-08T11:09:31;7.40;99.90
40932;DHT22;36257;46.052;12.540;2024-03-08T11:12:28;7.50;99.90
40932;DHT22;36257;46.052;12.540;2024-03-08T11:14:56;7.40;99.90
40932;DHT22;36257;46.052;12.540;2024-03-08T11:17:45;7.40;99.90
40932;DHT22;36257;46.052;12.540;2024-03-08T11:20:13;7.60;99.90
40932;DHT22;36257;46.052;12.540;2024-03-08T11:22:48;7.60;99.90
40932;DHT22;36257;46.052;12.540;2024-03-08T11:25:39;7.70;99.90
40932;DHT22;36257;46.052;12.540;2024-03-08T11:30:33;7.80;99.90
40932;DHT22;36257;46.052;12.540;2024-03-08T11:33:01;7.80;99.90
40932;DHT22;36257;46.052;12.540;2024-03-08T11:35:28;7.90;99.90
40932;DHT22;36257;46.052;12.540;2024-03-08T11:37:57;7.90;99.90
40932;DHT22;36257;46.052;12.540;2024-03-08T11:40:24;7.90;99.90
40932;DHT22;36257;46.052;12.540;2024-03-08T11:42:49;7.90;99.90
40932;DHT22;36257;46.052;12.540;2024-03-08T11:45:17;7.90;99.90
40932;DHT22;36257;46.052;12.540;2024-03-08T11:47:44;8.00;99.90
40932;DHT22;36257;46.052;12.540;2024-03-08T11:50:15;7.90;99.90
40932;DHT22;36257;46.052;12.540;2024-03-08T11:52:42;8.00;99.90
40932;DHT22;36257;46.052;12.540;2024-03-08T11:55:08;8.00;99.90
40932;DHT22;36257;46.052;12.540;2024-03-08T11:57:34;8.00;99.90
40932;DHT22;36257;46.052;12.540;2024-03-08T12:00:00;8.00;99.90
40932;DHT22;36257;46.052;12.540;2024-03-08T12:02:32;8.00;99.90
40932;DHT22;36257;46.052;12.540;2024-03-08T12:05:01;8.10;99.90
40932;DHT22;36257;46.052;12.540;2024-03-08T12:07:31;8.10;99.90
40932;DHT22;36257;46.052;12.540;2024-03-08T12:10:20;8.10;99.90
40932;DHT22;36257;46.052;12.540;2024-03-08T12:12:51;8.10;99.90
40932;DHT22;36257;46.052;12.540;2024-03-08T12:15:19;8.20;99.90
40932;DHT22;36257;46.052;12.540;2024-03-08T12:17:45;8.20;99.90
40932;DHT22;36257;46.052;12.540;2024-03-08T12:20:20;8.30;99.90
40932;DHT22;36257;46.052;12.540;2024-03-08T12:22:50;8.30;99.90
40932;DHT22;36257;46.052;12.540;2024-03-08T12:25:25;8.20;99.90
40932;DHT22;36257;46.052;12.540;2024-03-08T12:27:51;8.20;99.90
40932;DHT22;36257;46.052;12.540;2024-03-08T12:30:22;8.10;99.90
40932;DHT22;36257;46.052;12.540;2024-03-08T12:33:01;8.20;99.90
40932;DHT22;36257;46.052;12.540;2024-03-08T12:35:28;8.10;99.90
40932;DHT22;36257;46.052;12.540;2024-03-08T12:37:55;8.10;99.90
40932;DHT22;36257;46.052;12.540;2024-03-08T12:40:31;8.20;99.90
40932;DHT22;36257;46.052;12.540;2024-03-08T12:43:01;8.20;99.90
40932;DHT22;36257;46.052;12.540;2024-03-08T12:45:31;8.20;99.90
40932;DHT22;36257;46.052;12.540;2024-03-08T12:47:58;8.30;99.90
40932;DHT22;36257;46.052;12.540;2024-03-08T12:50:25;8.20;99.90
40932;DHT22;36257;46.052;12.540;2024-03-08T12:52:51;8.30;99.90
40932;DHT22;36257;46.052;12.540;2024-03-08T12:55:19;8.30;99.90
40932;DHT22;36257;46.052;12.540;2024-03-08T12:57:45;8.40;99.90
40932;DHT22;36257;46.052;12.540;2024-03-08T13:00:12;8.40;99.90
40932;DHT22;36257;46.052;12.540;2024-03-08T13:02:47;8.30;99.90
40932;DHT22;36257;46.052;12.540;2024-03-08T13:05:14;8.30;99.90
40932;DHT22;36257;46.052;12.540;2024-03-08T13:07:41;8.30;99.90
40932;DHT22;36257;46.052;12.540;2024-03-08T13:10:10;8.40;99.90
40932;DHT22;36257;46.052;12.540;2024-03-08T13:12:40;8.30;99.90
40932;DHT22;36257;46.052;12.540;2024-03-08T13:15:07;8.30;99.90
40932;DHT22;36257;46.052;12.540;2024-03-08T13:17:34;8.30;99.90
40932;DHT22;36257;46.052;12.540;2024-03-08T13:20:00;8.30;99.90
40932;DHT22;36257;46.052;12.540;2024-03-08T13:22:26;8.30;99.90
40932;DHT22;36257;46.052;12.540;2024-03-08T13:24:53;8.30;99.90
40932;DHT22;36257;46.052;12.540;2024-03-08T13:27:18;8.30;99.90
40932;DHT22;36257;46.052;12.540;2024-03-08T13:29:50;8.40;99.90
40932;DHT22;36257;46.052;12.540;2024-03-08T13:32:16;8.50;99.90
40932;DHT22;36257;46.052;12.540;2024-03-08T13:34:45;8.50;99.90
40932;DHT22;36257;46.052;12.540;2024-03-08T13:37:13;8.50;99.90
40932;DHT22;36257;46.052;12.540;2024-03-08T13:39:41;8.50;99.90
40932;DHT22;36257;46.052;12.540;2024-03-08T13:42:10;8.50;99.90
40932;DHT22;36257;46.052;12.540;2024-03-08T13:44:47;8.50;99.90
40932;DHT22;36257;46.052;12.540;2024-03-08T13:47:16;8.60;99.90
40932;DHT22;36257;46.052;12.540;2024-03-08T13:49:45;8.50;99.90
40932;DHT22;36257;46.052;12.540;2024-03-08T13:52:11;8.40;99.90
40932;DHT22;36257;46.052;12.540;2024-03-08T13:54:40;8.50;99.90
40932;DHT22;36257;46.052;12.540;2024-03-08T13:57:06;8.40;99.90
40932;DHT22;36257;46.052;12.540;2024-03-08T13:59:33;8.30;99.90
40932;DHT22;36257;46.052;12.540;2024-03-08T14:02:00;8.40;99.90
40932;DHT22;36257;46.052;12.540;2024-03-08T14:04:30;8.40;99.90
40932;DHT22;36257;46.052;12.540;2024-03-08T14:06:56;8.40;99.90
40932;DHT22;36257;46.052;12.540;2024-03-08T14:09:25;8.40;99.90
40932;DHT22;36257;46.052;12.540;2024-03-08T14:11:55;8.40;99.90
40932;DHT22;36257;46.052;12.540;2024-03-08T14:14:24;8.40;99.90
40932;DHT22;36257;46.052;12.540;2024-03-08T14:16:50;8.50;99.90
40932;DHT22;36257;46.052;12.540;2024-03-08T14:19:19;8.50;99.90
40932;DHT22;36257;46.052;12.540;2024-03-08T14:21:46;8.50;99.90
40932;DHT22;36257;46.052;12.540;2024-03-08T14:24:16;8.60;99.90
40932;DHT22;36257;46.052;12.540;2024-03-08T14:26:42;8.70;99.90
40932;DHT22;36257;46.052;12.540;2024-03-08T14:29:08;8.70;99.90
40932;DHT22;36257;46.052;12.540;2024-03-08T14:31:35;8.70;99.70
40932;DHT22;36257;46.052;12.540;2024-03-08T14:34:01;8.60;99.90
40932;DHT22;36257;46.052;12.540;2024-03-08T14:36:29;8.60;99.90
40932;DHT22;36257;46.052;12.540;2024-03-08T14:38:54;8.50;99.90
40932;DHT22;36257;46.052;12.540;2024-03-08T14:41:20;8.60;99.90
40932;DHT22;36257;46.052;12.540;2024-03-08T14:43:47;8.70;99.90
40932;DHT22;36257;46.052;12.540;2024-03-08T14:46:14;8.70;99.90
40932;DHT22;36257;46.052;12.540;2024-03-08T14:48:43;8.70;98.80
40932;DHT22;36257;46.052;12.540;2024-03-08T14:51:09;8.60;99.40
40932;DHT22;36257;46.052;12.540;2024-03-08T14:53:36;8.60;99.80
40932;DHT22;36257;46.052;12.540;2024-03-08T14:56:09;8.60;99.60
40932;DHT22;36257;46.052;12.540;2024-03-08T14:58:35;8.60;99.50
40932;DHT22;36257;46.052;12.540;2024-03-08T15:01:01;8.50;99.90
40932;DHT22;36257;46.052;12.540;2024-03-08T15:03:27;8.50;99.90
40932;DHT22;36257;46.052;12.540;2024-03-08T15:05:54;8.50;99.90
40932;DHT22;36257;46.052;12.540;2024-03-08T15:08:21;8.50;99.80
40932;DHT22;36257;46.052;12.540;2024-03-08T15:10:48;8.40;99.90
40932;DHT22;36257;46.052;12.540;2024-03-08T15:13:20;8.40;99.90
40932;DHT22;36257;46.052;12.540;2024-03-08T15:15:46;8.40;99.90
40932;DHT22;36257;46.052;12.540;2024-03-08T15:18:13;8.30;99.90
40932;DHT22;36257;46.052;12.540;2024-03-08T15:20:39;8.20;99.90
40932;DHT22;36257;46.052;12.540;2024-03-08T15:23:06;8.10;99.90
40932;DHT22;36257;46.052;12.540;2024-03-08T15:25:35;8.10;99.90
40932;DHT22;36257;46.052;12.540;2024-03-08T15:28:02;8.20;99.90
40932;DHT22;36257;46.052;12.540;2024-03-08T15:30:29;8.10;99.90
40932;DHT22;36257;46.052;12.540;2024-03-08T15:32:56;8.10;99.90
40932;DHT22;36257;46.052;12.540;2024-03-08T15:35:25;8.10;99.90
40932;DHT22;36257;46.052;12.540;2024-03-08T15:37:51;8.20;99.90